Time;durP1;ratioP1;P1;durP2;ratioP2;P2;SDS_P1;SDS_P2;PMS_P1;PMS_P2;Temp;Humidity;BMP_temperature;BMP_pressure;BME280_temperature;BME280_humidity;BME280_pressure;Samples;Min_cycle;Max_cycle;Signal;HPM_P1;HPM_P2
2022/07/17 00:01:41;;;;;;;2.25;1.40;;;;;;;13.55;100.00;102736.31;4948376;28;20046;-85
2022/07/17 00:04:10;;;;;;;5.05;1.40;;;;;;;13.53;100.00;102734.50;4953659;28;20073;-86
2022/07/17 00:06:38;;;;;;;3.05;1.75;;;;;;;13.51;100.00;102738.88;4973076;28;20081;-86
2022/07/17 00:09:07;;;;;;;7.50;2.17;;;;;;;13.47;100.00;102744.97;4949592;28;20544;-87
2022/07/17 00:11:35;;;;;;;6.57;2.47;;;;;;;13.43;100.00;102736.06;4960695;28;20045;-86
2022/07/17 00:14:06;;;;;;;3.05;1.65;;;;;;;13.39;100.00;102739.53;4908091;28;20041;-86
2022/07/17 00:16:35;;;;;;;5.07;1.80;;;;;;;13.35;100.00;102740.31;4980378;28;20042;-87
2022/07/17 00:19:03;;;;;;;5.97;1.75;;;;;;;13.27;100.00;102741.00;4951506;28;20035;-87
2022/07/17 00:21:31;;;;;;;5.30;2.50;;;;;;;13.24;100.00;102738.28;4972104;28;20043;-85
2022/07/17 00:24:00;;;;;;;3.67;1.67;;;;;;;13.20;100.00;102744.38;4982510;28;20054;-86
2022/07/17 00:26:28;;;;;;;3.92;2.10;;;;;;;13.15;100.00;102746.00;4960155;28;20062;-86
2022/07/17 00:28:57;;;;;;;5.82;2.20;;;;;;;13.10;100.00;102736.19;4958407;28;20047;-86
2022/07/17 00:31:26;;;;;;;4.68;2.17;;;;;;;13.05;100.00;102733.44;4936731;28;20058;-85
2022/07/17 00:33:54;;;;;;;3.92;2.00;;;;;;;13.02;100.00;102738.66;4960717;28;20050;-86
2022/07/17 00:36:23;;;;;;;5.75;1.83;;;;;;;12.97;100.00;102745.59;4948624;28;20047;-86
2022/07/17 00:38:54;;;;;;;5.75;1.83;;;;;;;12.92;100.00;102740.19;4967882;28;20049;-85
2022/07/17 00:41:22;;;;;;;4.57;1.50;;;;;;;12.88;100.00;102733.94;4953132;28;20418;-86
2022/07/17 00:43:51;;;;;;;6.57;2.05;;;;;;;12.85;100.00;102740.91;4975794;28;20041;-85
2022/07/17 00:46:21;;;;;;;4.35;2.20;;;;;;;12.81;100.00;102739.03;4941913;28;20051;-87
2022/07/17 00:48:49;;;;;;;3.65;2.05;;;;;;;12.77;100.00;102732.78;4989806;28;20057;-86
2022/07/17 00:51:17;;;;;;;4.72;1.90;;;;;;;12.73;100.00;102733.56;4954593;28;20050;-86
2022/07/17 00:53:49;;;;;;;3.60;1.77;;;;;;;12.70;100.00;102736.13;4984720;28;20372;-86
2022/07/17 00:56:17;;;;;;;;;;;;;;;12.66;100.00;102734.25;4957621;28;20285;-85
2022/07/17 00:58:50;;;;;;;5.07;1.73;;;;;;;12.62;100.00;102724.47;4969326;28;19922;-86
2022/07/17 01:01:19;;;;;;;2.85;1.90;;;;;;;12.58;100.00;102717.31;4949185;28;20050;-83
2022/07/17 01:03:48;;;;;;;3.65;2.17;;;;;;;12.54;100.00;102720.75;4954540;28;20050;-83
2022/07/17 01:06:18;;;;;;;4.80;2.28;;;;;;;12.51;100.00;102718.03;4954657;28;20034;-83
2022/07/17 01:08:48;;;;;;;7.93;2.72;;;;;;;12.47;100.00;102728.50;4952776;28;20039;-83
2022/07/17 01:11:16;;;;;;;6.40;2.40;;;;;;;12.45;100.00;102730.22;4959306;28;20360;-83
2022/07/17 01:13:48;;;;;;;7.43;2.40;;;;;;;12.42;100.00;102730.16;4963476;28;20069;-82
2022/07/17 01:16:16;;;;;;;3.72;2.13;;;;;;;12.39;100.00;102724.78;4942170;28;20059;-83
2022/07/17 01:18:44;;;;;;;2.83;2.00;;;;;;;12.37;100.00;102722.97;4973542;28;20039;-84
2022/07/17 01:21:12;;;;;;;5.10;2.05;;;;;;;12.34;100.00;102713.19;4969666;28;20027;-83
2022/07/17 01:23:41;;;;;;;9.32;2.38;;;;;;;12.32;100.00;102717.53;4955169;28;20042;-83
2022/07/17 01:26:10;;;;;;;4.43;2.38;;;;;;;12.31;100.00;102720.19;4951641;28;20061;-83
2022/07/17 01:28:38;;;;;;;3.25;2.00;;;;;;;12.29;100.00;102721.00;4986285;28;20054;-83
2022/07/17 01:31:06;;;;;;;7.18;2.50;;;;;;;12.27;100.00;102724.47;4933785;28;23771;-85
2022/07/17 01:33:35;;;;;;;6.80;2.67;;;;;;;12.23;100.00;102728.78;4942129;28;20042;-83
2022/07/17 01:36:04;;;;;;;5.07;2.53;;;;;;;12.21;100.00;102732.22;4965335;28;20277;-84
2022/07/17 01:38:32;;;;;;;4.55;2.92;;;;;;;12.18;100.00;102738.34;4958241;28;20049;-83
2022/07/17 01:41:01;;;;;;;6.03;2.42;;;;;;;12.15;100.00;102735.59;4947060;28;20500;-84
2022/07/17 01:43:29;;;;;;;5.20;2.95;;;;;;;12.13;100.00;102737.31;4947633;28;20050;-83
2022/07/17 01:45:58;;;;;;;6.55;3.38;;;;;;;12.10;100.00;102737.25;4956308;28;20042;-84
2022/07/17 01:48:28;;;;;;;7.78;3.60;;;;;;;12.07;100.00;102743.31;4914605;28;20053;-83
2022/07/17 01:50:56;;;;;;;5.15;3.33;;;;;;;12.04;100.00;102739.69;4970900;28;20158;-83
2022/07/17 01:53:25;;;;;;;4.32;2.97;;;;;;;12.02;100.00;102744.97;4980903;28;20054;-83
2022/07/17 01:55:55;;;;;;;4.95;2.72;;;;;;;11.99;100.00;102750.16;4956815;28;20419;-85
2022/07/17 01:58:23;;;;;;;5.03;3.10;;;;;;;11.96;100.00;102750.06;4970392;28;20069;-82
2022/07/17 02:00:53;;;;;;;6.95;3.70;;;;;;;11.94;100.00;102750.88;4956462;28;20039;-84
2022/07/17 02:03:21;;;;;;;7.63;4.63;;;;;;;11.93;100.00;102749.06;4944655;28;20452;-83
2022/07/17 02:05:51;;;;;;;6.90;4.45;;;;;;;11.90;100.00;102761.34;4938654;28;20046;-83
2022/07/17 02:08:20;;;;;;;12.73;4.88;;;;;;;11.89;100.00;102758.66;4972391;28;20061;-83
2022/07/17 02:10:48;;;;;;;7.45;4.13;;;;;;;11.88;100.00;102757.75;4965255;28;20043;-84
2022/07/17 02:13:17;;;;;;;7.70;4.10;;;;;;;11.88;100.00;102754.22;4983703;28;20054;-83
2022/07/17 02:15:45;;;;;;;8.82;3.95;;;;;;;11.87;100.00;102761.25;4943084;28;20593;-84
2022/07/17 02:18:14;;;;;;;10.20;3.97;;;;;;;11.85;100.00;102762.03;4945616;28;20526;-84
2022/07/17 02:20:46;;;;;;;4.05;3.75;;;;;;;11.85;100.00;102764.69;4938591;28;20591;-84
2022/07/17 02:23:15;;;;;;;7.45;4.20;;;;;;;11.82;100.00;102767.25;4963434;28;20543;-84
2022/07/17 02:25:44;;;;;;;7.18;4.40;;;;;;;11.81;100.00;102762.81;4959075;28;20049;-83
2022/07/17 02:28:12;;;;;;;7.50;3.75;;;;;;;11.81;100.00;102773.38;4948720;28;20414;-84
2022/07/17 02:30:41;;;;;;;5.22;4.07;;;;;;;11.78;100.00;102765.38;4991956;28;20050;-84
2022/07/17 02:33:09;;;;;;;6.07;3.90;;;;;;;11.78;100.00;102754.81;4938544;28;23046;-85
2022/07/17 02:35:38;;;;;;;4.70;3.55;;;;;;;11.76;100.00;102756.50;4973341;28;20046;-83
2022/07/17 02:38:06;;;;;;;11.88;4.28;;;;;;;11.76;100.00;102748.56;4950073;28;20050;-83
2022/07/17 02:40:35;;;;;;;7.35;4.38;;;;;;;11.75;100.00;102737.13;4938039;28;20055;-84
2022/07/17 02:43:03;;;;;;;8.73;4.07;;;;;;;11.75;100.00;102733.59;4953688;28;20047;-82
2022/07/17 02:45:32;;;;;;;4.68;3.88;;;;;;;11.75;100.00;102712.47;4953270;28;20069;-83
2022/07/17 02:48:00;;;;;;;6.20;3.83;;;;;;;11.76;100.00;102709.88;4954208;28;20391;-83
2022/07/17 02:50:29;;;;;;;5.32;3.78;;;;;;;11.77;100.00;102716.03;4925311;28;20404;-84
2022/07/17 02:52:58;;;;;;;5.70;3.80;;;;;;;11.77;100.00;102721.31;4954192;28;20046;-84
2022/07/17 02:55:26;;;;;;;4.50;3.33;;;;;;;11.78;100.00;102733.69;4956042;28;20499;-82
2022/07/17 02:57:55;;;;;;;8.93;3.00;;;;;;;11.76;100.00;102744.19;4974751;28;20050;-83
2022/07/17 03:00:23;;;;;;;4.50;3.22;;;;;;;11.75;100.00;102757.34;4955806;28;20062;-83
2022/07/17 03:02:52;;;;;;;6.30;3.40;;;;;;;11.73;100.00;102751.13;4977278;28;20522;-83
2022/07/17 03:05:21;;;;;;;6.10;3.03;;;;;;;11.70;100.00;102747.56;4929645;28;20047;-83
2022/07/17 03:07:50;;;;;;;4.72;4.13;;;;;;;11.69;100.00;102742.22;4973204;28;20047;-84
2022/07/17 03:10:18;;;;;;;4.00;3.35;;;;;;;11.67;100.00;102751.84;4958328;28;20030;-83
2022/07/17 03:12:47;;;;;;;7.15;3.75;;;;;;;11.65;100.00;102753.56;4973085;28;20523;-83
2022/07/17 03:15:15;;;;;;;6.85;4.07;;;;;;;11.63;100.00;102753.50;4950360;28;20058;-85
2022/07/17 03:17:47;;;;;;;5.88;3.20;;;;;;;11.63;100.00;102761.44;4969727;28;20265;-83
2022/07/17 03:20:18;;;;;;;12.98;3.95;;;;;;;11.63;100.00;102763.19;4946932;28;20046;-82
2022/07/17 03:22:49;;;;;;;4.03;3.03;;;;;;;11.62;100.00;102769.31;4939757;28;20625;-84
2022/07/17 03:25:18;;;;;;;12.77;4.30;;;;;;;11.60;100.00;102776.28;4979940;28;20058;-83
2022/07/17 03:27:46;;;;;;;5.65;3.42;;;;;;;11.57;100.00;102777.09;4952495;28;20047;-83
2022/07/17 03:30:14;;;;;;;6.28;3.25;;;;;;;11.57;100.00;102766.53;4948843;28;20157;-83
2022/07/17 03:32:43;;;;;;;8.65;3.70;;;;;;;11.58;100.00;102755.09;4954890;28;20146;-83
2022/07/17 03:35:12;;;;;;;12.68;4.65;;;;;;;11.61;100.00;102762.25;4961944;28;20054;-82
2022/07/17 03:37:43;;;;;;;6.80;3.95;;;;;;;11.61;100.00;102756.97;4927859;28;20058;-83
2022/07/17 03:40:12;;;;;;;6.78;4.10;;;;;;;11.59;100.00;102759.56;4970857;28;20058;-83
2022/07/17 03:42:40;;;;;;;8.10;3.80;;;;;;;11.61;100.00;102762.25;4964730;28;20031;-84
2022/07/17 03:45:09;;;;;;;5.55;3.55;;;;;;;11.59;100.00;102764.84;4948600;28;20046;-82
2022/07/17 03:47:38;;;;;;;5.80;3.30;;;;;;;11.60;100.00;102763.09;4972621;28;20515;-83
2022/07/17 03:50:06;;;;;;;9.00;3.75;;;;;;;11.63;100.00;102758.78;4973827;28;20050;-83
2022/07/17 03:52:37;;;;;;;;;;;;;;;11.63;100.00;102761.44;4925382;28;20641;-83
2022/07/17 03:55:06;;;;;;;5.70;3.50;;;;;;;11.66;100.00;102755.34;4974078;28;19922;-83
2022/07/17 03:57:34;;;;;;;10.95;3.70;;;;;;;11.68;100.00;102759.81;4968292;28;20039;-83
2022/07/17 04:00:04;;;;;;;6.85;3.97;;;;;;;11.70;100.00;102763.41;4956957;28;20504;-83
2022/07/17 04:02:39;;;;;;;4.35;3.70;;;;;;;11.74;100.00;102760.84;4952590;28;20034;-82
2022/07/17 04:05:09;;;;;;;6.10;3.80;;;;;;;11.78;100.00;102754.81;4973963;28;20047;-83
2022/07/17 04:07:39;;;;;;;5.85;3.30;;;;;;;11.82;100.00;102756.69;4954516;28;20043;-83
2022/07/17 04:10:10;;;;;;;5.93;3.50;;;;;;;11.85;100.00;102751.47;4939420;28;20047;-84
2022/07/17 04:12:40;;;;;;;10.95;3.92;;;;;;;11.88;100.00;102751.56;4946881;29;20039;-84
2022/07/17 04:15:09;;;;;;;7.53;3.33;;;;;;;11.93;100.00;102755.28;4976875;28;20055;-84
2022/07/17 04:17:38;;;;;;;9.55;4.05;;;;;;;11.98;100.00;102753.63;4965029;28;20039;-84
2022/07/17 04:20:07;;;;;;;9.48;3.55;;;;;;;12.04;100.00;102760.84;4984342;28;20071;-84
2022/07/17 04:22:35;;;;;;;5.65;3.22;;;;;;;12.08;100.00;102754.81;4960888;28;20248;-84
2022/07/17 04:25:06;;;;;;;4.85;3.22;;;;;;;12.14;100.00;102759.38;4930188;28;20040;-83
2022/07/17 04:27:39;;;;;;;10.88;3.22;;;;;;;12.17;100.00;102770.00;4970760;28;20050;-83
2022/07/17 04:30:08;;;;;;;6.07;2.88;;;;;;;12.20;100.00;102770.09;4957778;28;20050;-83
2022/07/17 04:32:36;;;;;;;5.40;2.95;;;;;;;12.21;100.00;102769.22;4964682;28;20512;-84
2022/07/17 04:35:05;;;;;;;5.72;3.28;;;;;;;12.24;100.00;102756.09;4954760;28;20047;-84
2022/07/17 04:37:34;;;;;;;8.32;3.10;;;;;;;12.27;100.00;102751.81;4982578;28;20046;-83
2022/07/17 04:40:03;;;;;;;4.25;3.22;;;;;;;12.31;100.00;102750.13;4951493;28;20142;-83
2022/07/17 04:42:31;;;;;;;8.30;3.60;;;;;;;12.35;100.00;102754.66;4952458;28;20048;-82
2022/07/17 04:44:59;;;;;;;7.05;3.40;;;;;;;12.39;100.00;102755.63;4972743;28;20380;-83
2022/07/17 04:47:28;;;;;;;9.48;3.25;;;;;;;12.41;100.00;102756.56;4953638;28;20054;-82
2022/07/17 04:49:57;;;;;;;6.90;3.72;;;;;;;12.42;100.00;102748.66;4970415;28;20042;-84
2022/07/17 04:52:25;;;;;;;5.28;2.85;;;;;;;12.42;100.00;102743.38;4970170;28;20396;-84
2022/07/17 04:54:54;;;;;;;12.00;4.35;;;;;;;12.45;100.00;102746.09;4955664;28;20055;-82
2022/07/17 04:57:22;;;;;;;7.65;3.80;;;;;;;12.49;100.00;102744.41;4928128;28;20039;-83
2022/07/17 04:59:51;;;;;;;8.35;3.22;;;;;;;12.51;100.00;102737.41;4955232;28;20519;-83
2022/07/17 05:02:20;;;;;;;7.32;4.10;;;;;;;12.53;100.00;102743.63;4966672;28;20034;-84
2022/07/17 05:04:49;;;;;;;9.32;3.25;;;;;;;12.55;100.00;102744.59;4957661;28;20046;-84
2022/07/17 05:07:17;;;;;;;6.55;3.22;;;;;;;12.57;100.00;102752.53;4934631;29;20062;-84
2022/07/17 05:09:48;;;;;;;4.90;2.58;;;;;;;12.58;100.00;102764.94;4952465;28;20043;-83
2022/07/17 05:12:16;;;;;;;7.03;3.30;;;;;;;12.60;100.00;102765.84;4933826;28;20051;-84
2022/07/17 05:14:45;;;;;;;6.10;2.78;;;;;;;12.63;100.00;102750.97;4950440;28;20493;-83
2022/07/17 05:17:14;;;;;;;5.40;2.72;;;;;;;12.71;100.00;102758.19;4953451;28;20047;-84
2022/07/17 05:19:42;;;;;;;6.97;3.08;;;;;;;12.75;100.00;102758.31;4946984;28;20039;-84
2022/07/17 05:22:11;;;;;;;8.75;3.58;;;;;;;12.86;100.00;102769.16;4935008;28;20051;-83
2022/07/17 05:24:39;;;;;;;6.70;2.80;;;;;;;12.95;100.00;102784.34;4943334;28;20054;-84
2022/07/17 05:27:17;;;;;;;3.97;2.95;;;;;;;13.02;100.00;102789.84;4907808;28;20055;-84
2022/07/17 05:29:46;;;;;;;4.07;2.30;;;;;;;13.09;100.00;102796.16;4935063;29;20047;-83
2022/07/17 05:32:15;;;;;;;6.30;3.13;;;;;;;13.16;100.00;102790.16;4920637;29;20047;-84
2022/07/17 05:34:44;;;;;;;9.90;2.70;;;;;;;13.21;100.00;102804.41;4952407;28;20046;-84
2022/07/17 05:37:12;;;;;;;7.78;2.25;;;;;;;13.30;100.00;102809.03;4919966;29;20127;-84
2022/07/17 05:39:40;;;;;;;4.15;2.25;;;;;;;13.46;100.00;102807.66;4962136;28;20055;-85
2022/07/17 05:42:09;;;;;;;4.85;2.47;;;;;;;13.87;100.00;102806.75;4909755;28;20074;-83
2022/07/17 05:44:37;;;;;;;4.43;2.08;;;;;;;14.13;100.00;102800.22;4930128;29;20042;-83
2022/07/17 05:47:06;;;;;;;8.05;2.53;;;;;;;14.72;100.00;102786.28;4932535;29;20048;-83
2022/07/17 05:49:34;;;;;;;7.10;2.42;;;;;;;15.44;100.00;102793.59;4944452;29;20039;-84
2022/07/17 05:52:03;;;;;;;4.07;1.77;;;;;;;16.11;100.00;102796.25;4926941;29;20078;-84
2022/07/17 05:54:34;;;;;;;4.70;1.67;;;;;;;16.31;100.00;102796.44;4904928;29;20060;-84
2022/07/17 05:57:03;;;;;;;4.60;1.40;;;;;;;16.41;100.00;102800.09;4918502;28;20930;-83
2022/07/17 05:59:37;;;;;;;4.43;2.03;;;;;;;16.41;100.00;102797.44;4934759;29;20070;-83
2022/07/17 06:02:06;;;;;;;4.03;1.50;;;;;;;16.54;100.00;102789.59;4969781;28;20051;-83
2022/07/17 06:04:35;;;;;;;5.60;1.60;;;;;;;16.93;100.00;102798.81;4918707;28;20047;-83
2022/07/17 06:07:03;;;;;;;5.22;1.88;;;;;;;17.18;100.00;102811.44;4957065;28;20050;-83
2022/07/17 06:09:32;;;;;;;7.32;1.77;;;;;;;17.22;100.00;102813.22;4920243;28;20046;-84
2022/07/17 06:12:00;;;;;;;4.35;1.85;;;;;;;17.17;100.00;102810.56;4960106;28;20046;-83
2022/07/17 06:14:29;;;;;;;6.32;1.92;;;;;;;17.05;100.00;102813.09;4930043;28;20050;-84
2022/07/17 06:16:58;;;;;;;3.88;2.10;;;;;;;16.88;100.00;102810.31;4954073;28;20597;-84
2022/07/17 06:19:27;;;;;;;4.22;1.90;;;;;;;16.71;100.00;102807.47;4971439;28;20519;-84
2022/07/17 06:21:55;;;;;;;4.47;2.03;;;;;;;16.57;100.00;102808.25;4928718;28;20041;-84
2022/07/17 06:24:24;;;;;;;7.00;2.25;;;;;;;16.47;100.00;102805.50;4942362;28;20054;-84
2022/07/17 06:26:52;;;;;;;6.97;2.00;;;;;;;16.36;100.00;102808.91;4988488;28;20412;-83
2022/07/17 06:29:26;;;;;;;4.05;1.58;;;;;;;16.32;100.00;102804.44;4946583;28;20035;-83
2022/07/17 06:31:55;;;;;;;3.70;1.90;;;;;;;16.28;100.00;102794.66;4962991;28;20270;-84
2022/07/17 06:34:23;;;;;;;9.32;1.90;;;;;;;16.27;100.00;102808.81;4957632;28;20142;-83
2022/07/17 06:36:52;;;;;;;8.43;2.17;;;;;;;16.26;100.00;102796.41;4946328;28;20408;-84
2022/07/17 06:39:23;;;;;;;5.88;1.85;;;;;;;16.20;100.00;102799.03;4973774;28;20487;-84
2022/07/17 06:41:51;;;;;;;4.78;1.95;;;;;;;16.15;100.00;102800.72;4945162;28;20034;-84
2022/07/17 06:44:21;;;;;;;3.97;1.80;;;;;;;16.15;100.00;102792.75;4971479;28;20408;-84
2022/07/17 06:46:51;;;;;;;7.70;1.95;;;;;;;16.16;100.00;102794.50;4928721;28;20392;-84
2022/07/17 06:49:20;;;;;;;3.38;1.88;;;;;;;16.15;100.00;102790.09;4948817;28;20400;-84
2022/07/17 06:51:48;;;;;;;4.50;1.80;;;;;;;16.10;100.00;102791.78;4971024;28;20046;-84
2022/07/17 06:54:17;;;;;;;6.03;1.67;;;;;;;16.10;100.00;102802.44;4955875;28;20054;-84
2022/07/17 06:56:46;;;;;;;4.32;1.80;;;;;;;16.12;100.00;102806.91;4968927;28;20055;-85
2022/07/17 06:59:14;;;;;;;3.75;1.63;;;;;;;16.13;100.00;102807.78;4955568;28;20065;-82
2022/07/17 07:01:43;;;;;;;4.40;1.98;;;;;;;16.14;100.00;102812.22;4946747;28;20500;-83
2022/07/17 07:04:12;;;;;;;5.20;1.60;;;;;;;16.17;100.00;102818.47;4981135;28;20066;-84
2022/07/17 07:06:40;;;;;;;4.47;1.58;;;;;;;16.22;100.00;102817.63;4940970;28;20035;-83
2022/07/17 07:09:11;;;;;;;6.47;2.00;;;;;;;16.23;100.00;102827.41;4937599;28;20042;-84
2022/07/17 07:11:44;;;;;;;4.90;1.73;;;;;;;16.24;100.00;102827.44;4987054;28;20530;-83
2022/07/17 07:14:13;;;;;;;4.45;1.50;;;;;;;16.28;100.00;102823.91;4961040;28;20047;-83
2022/07/17 07:16:41;;;;;;;7.25;2.22;;;;;;;16.30;100.00;102818.63;4940836;28;20043;-83
2022/07/17 07:19:10;;;;;;;8.25;2.13;;;;;;;16.34;100.00;102831.97;4930610;28;20251;-84
2022/07/17 07:21:38;;;;;;;3.85;1.52;;;;;;;16.42;100.00;102837.38;4970588;28;20038;-83
2022/07/17 07:24:08;;;;;;;6.88;1.90;;;;;;;16.45;100.00;102831.19;4965350;28;20681;-84
2022/07/17 07:26:36;;;;;;;8.38;2.15;;;;;;;16.49;100.00;102836.56;4979796;28;20046;-84
2022/07/17 07:29:04;;;;;;;4.63;1.80;;;;;;;16.52;100.00;102833.94;4970085;28;20050;-85
2022/07/17 07:31:33;;;;;;;4.72;1.15;;;;;;;16.54;100.00;102841.91;4931477;28;20051;-85
2022/07/17 07:34:02;;;;;;;5.18;2.20;;;;;;;16.56;100.00;102846.41;4950302;28;20054;-84
2022/07/17 07:36:30;;;;;;;5.78;1.55;;;;;;;16.60;100.00;102844.66;4986378;28;20506;-84
2022/07/17 07:38:59;;;;;;;4.53;1.80;;;;;;;16.62;100.00;102850.88;4967655;28;20042;-84
2022/07/17 07:41:27;;;;;;;3.13;1.52;;;;;;;16.67;100.00;102858.91;4955048;28;20045;-83
2022/07/17 07:43:59;;;;;;;2.80;1.40;;;;;;;16.73;100.00;102859.88;4950257;28;20638;-84
2022/07/17 07:46:30;;;;;;;5.90;2.05;;;;;;;16.79;100.00;102858.16;4976923;28;20057;-84
2022/07/17 07:48:59;;;;;;;6.53;2.15;;;;;;;16.84;100.00;102859.09;4948376;28;20050;-83
2022/07/17 07:51:29;;;;;;;6.30;2.60;;;;;;;16.82;100.00;102858.16;4969136;28;20408;-83
2022/07/17 07:54:17;;;;;;;6.28;1.50;;;;;;;16.87;100.00;102862.69;4956128;28;20058;-82
2022/07/17 07:56:47;;;;;;;4.97;1.27;;;;;;;17.02;100.00;102866.38;4958312;28;20042;-84
2022/07/17 07:59:16;;;;;;;5.13;1.73;;;;;;;17.15;100.00;102863.81;4954329;28;20034;-83
2022/07/17 08:01:44;;;;;;;4.68;1.55;;;;;;;17.30;100.00;102856.84;4948466;28;20304;-85
2022/07/17 08:04:13;;;;;;;3.97;1.77;;;;;;;17.40;98.89;102864.00;4932885;28;20069;-85
2022/07/17 08:06:41;;;;;;;7.53;1.83;;;;;;;17.46;98.53;102869.34;4966858;28;20280;-85
2022/07/17 08:09:10;;;;;;;4.88;1.42;;;;;;;17.54;98.33;102866.75;4974624;28;20058;-85
2022/07/17 08:11:40;;;;;;;4.05;1.50;;;;;;;17.65;97.91;102851.69;4971379;28;20354;-86
2022/07/17 08:14:08;;;;;;;10.60;1.73;;;;;;;17.73;97.29;102858.00;4963571;28;20035;-84
2022/07/17 08:16:44;;;;;;;5.95;1.48;;;;;;;17.82;97.09;102851.78;4949752;28;20066;-85
2022/07/17 08:19:14;;;;;;;3.67;1.20;;;;;;;17.89;96.21;102842.97;4952052;28;20050;-86
2022/07/17 08:21:43;;;;;;;8.45;1.40;;;;;;;17.96;95.81;102845.66;4966252;28;20165;-85
2022/07/17 08:24:11;;;;;;;4.60;1.52;;;;;;;17.99;95.64;102838.56;4955830;28;20499;-86
2022/07/17 08:26:40;;;;;;;7.57;1.90;;;;;;;18.03;95.32;102844.81;4946418;28;20421;-86
2022/07/17 08:29:09;;;;;;;6.45;1.80;;;;;;;18.09;95.54;102843.06;4941314;28;20031;-86
2022/07/17 08:31:37;;;;;;;6.20;1.30;;;;;;;18.17;95.96;102836.88;4959340;28;20043;-85
2022/07/17 08:34:06;;;;;;;4.00;1.58;;;;;;;18.20;94.40;102847.53;4935895;28;20488;-86
2022/07/17 08:36:35;;;;;;;5.45;1.50;;;;;;;18.23;94.31;102848.44;4966204;28;20061;-86
2022/07/17 08:39:03;;;;;;;4.75;1.85;;;;;;;18.27;93.78;102839.56;4944023;28;20503;-86
2022/07/17 08:41:36;;;;;;;2.00;1.10;;;;;;;18.33;93.86;102843.13;4944506;28;20272;-86
2022/07/17 08:44:07;;;;;;;5.32;1.50;;;;;;;18.35;92.96;102847.56;4957240;28;20054;-86
2022/07/17 08:46:36;;;;;;;7.00;1.48;;;;;;;18.35;92.43;102847.56;4962803;28;20500;-86
2022/07/17 08:49:06;;;;;;;;;;;;;;;18.38;90.68;102849.38;4955265;28;20065;-86
2022/07/17 08:51:35;;;;;;;5.60;1.30;;;;;;;18.41;93.16;102852.94;4937920;28;20032;-86
2022/07/17 08:54:08;;;;;;;5.60;1.58;;;;;;;18.51;93.48;102846.72;4965151;28;20422;-86
2022/07/17 08:56:37;;;;;;;3.45;1.10;;;;;;;18.61;93.09;102852.97;4950398;28;20030;-86
2022/07/17 08:59:06;;;;;;;4.07;1.40;;;;;;;18.69;91.80;102847.63;4919603;28;20054;-87
2022/07/17 09:01:35;;;;;;;11.93;1.98;;;;;;;18.74;91.49;102845.00;4932412;28;20038;-87
2022/07/17 09:04:06;;;;;;;5.07;1.25;;;;;;;18.79;91.35;102849.44;4969822;28;20038;-85
2022/07/17 09:06:36;;;;;;;3.75;1.42;;;;;;;18.81;89.98;102846.78;4940099;28;20053;-85
2022/07/17 09:09:10;;;;;;;2.30;1.23;;;;;;;18.83;90.57;102853.06;4973214;28;20062;-83
2022/07/17 09:11:47;;;;;;;4.50;1.40;;;;;;;18.83;89.48;102848.59;4984893;28;20242;-82
2022/07/17 09:14:17;;;;;;;5.50;1.45;;;;;;;18.89;89.34;102845.03;4978178;28;20058;-81
2022/07/17 09:17:00;;;;;;;4.20;1.20;;;;;;;18.93;89.16;102852.16;4958091;28;20405;-79
2022/07/17 09:19:31;;;;;;;2.33;1.20;;;;;;;18.94;88.66;102842.34;4940157;28;20042;-81
2022/07/17 09:22:10;;;;;;;3.60;1.42;;;;;;;18.90;87.46;102844.13;4961228;28;20038;-81
2022/07/17 09:24:47;;;;;;;3.72;1.77;;;;;;;18.91;88.45;102845.91;4958187;28;20180;-81
2022/07/17 09:27:23;;;;;;;6.68;1.42;;;;;;;19.00;88.73;102840.56;4985258;28;20069;-81
2022/07/17 09:30:10;;;;;;;4.78;1.50;;;;;;;19.03;87.21;102843.22;4971333;28;20069;-81
2022/07/17 09:32:42;;;;;;;3.78;1.40;;;;;;;19.08;87.64;102833.44;4987524;28;20065;-81
2022/07/17 09:35:11;;;;;;;3.33;1.77;;;;;;;19.15;87.13;102841.44;4972709;28;20057;-83
2022/07/17 09:37:45;;;;;;;4.07;1.25;;;;;;;19.23;87.61;102831.66;4929135;28;20073;-80
2022/07/17 09:43:13;;;;;;;2.00;1.30;;;;;;;19.50;86.98;102833.38;4970215;28;20042;-82
2022/07/17 09:45:42;;;;;;;5.35;1.30;;;;;;;19.58;85.71;102828.00;4970792;28;20055;-81
2022/07/17 09:48:11;;;;;;;6.53;1.50;;;;;;;19.64;85.91;102830.66;4944009;28;20523;-84
2022/07/17 09:50:41;;;;;;;2.08;1.52;;;;;;;19.68;85.35;102832.44;4983498;28;20694;-82
2022/07/17 09:53:11;;;;;;;5.00;1.80;;;;;;;19.71;84.63;102828.84;4959566;28;20062;-82
2022/07/17 09:55:45;;;;;;;3.60;1.45;;;;;;;19.77;84.64;102820.84;4950474;28;20046;-81
2022/07/17 09:58:19;;;;;;;2.42;1.50;;;;;;;19.81;83.05;102833.28;4954933;28;20035;-82
2022/07/17 10:00:48;;;;;;;5.78;1.40;;;;;;;19.83;82.85;102832.41;4963380;28;20053;-82
2022/07/17 10:03:19;;;;;;;3.53;1.40;;;;;;;19.91;83.28;102826.16;4954105;28;20046;-85
2022/07/17 10:05:47;;;;;;;3.08;1.38;;;;;;;20.01;82.31;102825.19;4951528;28;20268;-85
2022/07/17 10:08:16;;;;;;;2.08;1.20;;;;;;;20.11;82.48;102832.28;4924491;28;20053;-84
2022/07/17 10:10:45;;;;;;;3.92;1.40;;;;;;;20.13;82.25;102819.78;4955855;28;20053;-84
2022/07/17 10:13:15;;;;;;;3.95;1.30;;;;;;;20.21;82.20;102822.44;4951688;28;20157;-85
2022/07/17 10:15:50;;;;;;;5.38;1.65;;;;;;;20.35;82.54;102830.38;4936751;28;20336;-83
2022/07/17 10:18:21;;;;;;;2.40;1.27;;;;;;;20.45;80.88;102832.06;4967524;28;20061;-85
2022/07/17 10:20:51;;;;;;;5.60;1.50;;;;;;;20.51;79.67;102825.78;4957009;28;20042;-85
2022/07/17 10:23:24;;;;;;;4.53;1.30;;;;;;;20.54;79.46;102829.34;4940835;28;20145;-85
2022/07/17 10:25:59;;;;;;;6.65;1.70;;;;;;;20.60;78.72;102840.06;4957071;28;20058;-86
2022/07/17 10:28:47;;;;;;;8.63;1.92;;;;;;;20.66;77.51;102843.56;4944633;28;20126;-87
2022/07/17 10:31:24;;;;;;;2.63;1.40;;;;;;;20.79;78.94;102831.88;4973819;28;20069;-84
2022/07/17 10:34:02;;;;;;;7.60;1.45;;;;;;;20.91;77.68;102825.53;4947432;28;20050;-85
2022/07/17 10:36:38;;;;;;;1.63;1.13;;;;;;;20.93;77.19;102824.59;4954019;28;20255;-86
2022/07/17 10:39:10;;;;;;;3.60;1.80;;;;;;;20.95;76.78;102825.47;4971041;28;20041;-86
2022/07/17 10:41:42;;;;;;;3.72;1.42;;;;;;;20.98;76.38;102825.47;4945286;28;20252;-86
2022/07/17 10:44:11;;;;;;;5.65;1.25;;;;;;;21.00;75.41;102826.34;4931035;28;20058;-86
2022/07/17 10:46:39;;;;;;;3.72;1.58;;;;;;;21.01;75.32;102824.53;4942476;28;20043;-86
2022/07/17 10:49:08;;;;;;;3.83;1.00;;;;;;;20.97;75.19;102814.75;4914514;28;20046;-86
2022/07/17 10:51:41;;;;;;;2.80;1.23;;;;;;;20.90;76.38;102821.94;4963804;28;20563;-86
2022/07/17 10:54:10;;;;;;;2.38;1.40;;;;;;;20.88;76.73;102814.84;4982279;28;20121;-87
2022/07/17 10:56:41;;;;;;;6.25;1.42;;;;;;;20.96;76.72;102818.31;4922645;28;20077;-86
2022/07/17 10:59:10;;;;;;;2.60;1.58;;;;;;;21.13;77.99;102820.84;4941812;28;20040;-86
2022/07/17 11:01:39;;;;;;;1.55;1.23;;;;;;;21.33;78.03;102829.59;4975072;28;20047;-86
2022/07/17 11:04:08;;;;;;;3.22;1.30;;;;;;;21.49;77.04;102824.97;4947155;28;20050;-85
2022/07/17 11:06:39;;;;;;;2.53;1.08;;;;;;;21.52;76.77;102827.63;4958149;28;20443;-86
2022/07/17 11:09:11;;;;;;;4.07;1.50;;;;;;;21.60;77.19;102825.72;4939238;28;20046;-86
2022/07/17 11:11:42;;;;;;;4.32;1.08;;;;;;;21.70;76.64;102826.53;4922823;28;20179;-86
2022/07/17 11:14:24;;;;;;;3.60;1.50;;;;;;;21.75;74.74;102827.34;4948940;28;20038;-85
2022/07/17 11:16:55;;;;;;;5.00;1.60;;;;;;;21.76;75.95;102818.41;4975078;28;20050;-87
2022/07/17 11:19:31;;;;;;;1.40;1.30;;;;;;;21.69;74.59;102826.56;4959555;28;20043;-84
2022/07/17 11:22:02;;;;;;;5.22;1.83;;;;;;;21.61;74.91;102818.59;4967427;28;20046;-85
2022/07/17 11:24:42;;;;;;;4.97;1.75;;;;;;;21.70;73.42;102821.16;4960768;28;20053;-86
2022/07/17 11:27:26;;;;;;;;;;;;;;;21.81;69.55;102821.00;4993125;28;20400;-86
2022/07/17 11:30:03;;;;;;;6.43;2.00;;;;;;;21.96;71.94;102804.72;4947791;28;19925;-86
2022/07/17 11:32:37;;;;;;;5.10;1.65;;;;;;;21.98;71.87;102815.44;4956605;28;20154;-85
2022/07/17 11:35:16;;;;;;;1.88;1.40;;;;;;;22.12;73.05;102812.59;4961848;28;20053;-85